O69

Petaluma Municipal Airport

Petaluma, California, USA
METAR KO69 181715Z AUTO 18003KT 10SM OVC010 14/12 A2999 RMK A01
Observed Flight Rules
Sep-18 @ 17:15 UTC (18 minutes ago) Marginal Visual Flight Rules
Wind Visibility Clouds
180° at 3 knots 10 miles
  • Overcast at 1,000' AGL
Temperatures Readings
Current 14°C / 57°F
Dewpoint 12°C / 54°F
Humidity 88%
Altimeter 29.99" Hg
Pressure 1016 hPa
Elevation 28
METAR KO69 181715Z AUTO 18003KT 10SM OVC010 14/12 A2999 RMK A01
Observed Flight Rules
Sep-18 @ 17:15 UTC
(18 minutes ago)
MVFR
Wind Visibility
180° at 3 knots 10 miles
Clouds
  • Overcast at 1,000' AGL
Temperature Dewpoint
14°C / 57°F 12°C / 54°F
Humidity Altimeter Pressure
88% 29.99" Hg 1016 hPa